Airfield :
LOGIN :

Register | Disclaimer

   EN    FR    IT 

 










Legend :    VFR   Marginal VFR   IFR   Intensive IFR   Very Intensive IFR
Visi :
Ceiling :
>= 8 km
>= 3000ft
5 to 8 km
1000 to 3000 ft
1500m to 5 km
500 to 1000 ft
800 to 1500m
200 to 500 ft
< 800m
< 200 ft
Symbols :   Thunderstorms  Fog  Heavy snow  Heavy precipitations  Wind > 20 kt
SIGMETs :     Misc.  Thunderstorms  Icing  Turbulence  Mountain Waves  Volcanic Ashes






- Airport Elevation : 465 ft
- IATA code : LEJ


EDDP - Leipzig Halle

CURRENT METAR :
  • 231950Z 04005KT CAVOK 20/14 Q1015 NOSIG

EXPIRED METARs :
  • 231920Z 03004KT CAVOK 20/14 Q1015 NOSIG
  • 231850Z 04005KT CAVOK 21/14 Q1015 NOSIG
  • 231820Z 03004KT CAVOK 23/14 Q1014 NOSIG
  • 231750Z 04006KT CAVOK 24/13 Q1014 NOSIG
  • 231720Z 01004KT 340V050 CAVOK 25/12 Q1014 NOSIG

TAF TAF EDDP
Valid from the 23 at 18:00 until the 24 at 18:00 UTC


231700Z 2318/2418 35004KT CAVOK
BECMG 2319/2321 05005KT
BECMG 2407/2409 12009KT



MET'MAP, your aeronautical weather chart ! - Copyright ORBIFLY December 2007 - Disclaimer

ORBIFLY MET'MAP TEAM :

Programming & Development : Alexandra Zaïnal
Concept & original design : Baudouin d'Aumeries
Assistance for programming : Marc-Olivier Méhu
Technical & hardware support : Manuel Goepfert

Contact : metmap@orbifly.com




SOURCES & CREDITS :

   NOAA